createdAt,value
2018-09-14T00:01:10.341Z,101959.23
2018-09-14T00:03:38.843Z,101956.26
2018-09-14T00:06:07.448Z,101958.41
2018-09-14T00:08:35.910Z,101955.88
2018-09-14T00:11:04.372Z,101954.27
2018-09-14T00:13:32.836Z,101953.00
2018-09-14T00:16:01.325Z,101950.36
2018-09-14T00:18:29.796Z,101942.30
2018-09-14T00:20:58.336Z,101952.52
2018-09-14T00:23:26.824Z,101949.51
2018-09-14T00:25:55.325Z,101946.70
2018-09-14T00:28:24.092Z,101948.23
2018-09-14T00:30:52.559Z,101940.47
2018-09-14T00:33:21.005Z,101942.17
2018-09-14T00:35:49.557Z,101938.35
2018-09-14T00:38:18.084Z,101938.34
2018-09-14T00:40:46.567Z,101942.77
2018-09-14T00:43:15.393Z,101935.73
2018-09-14T00:45:44.216Z,101942.25
2018-09-14T00:48:12.959Z,101944.24
2018-09-14T00:50:41.395Z,101937.84
2018-09-14T00:53:09.874Z,101934.17
2018-09-14T00:55:38.457Z,101934.86
2018-09-14T00:58:06.953Z,101932.50
2018-09-14T01:00:35.532Z,101936.73
2018-09-14T01:03:04.037Z,101938.72
2018-09-14T01:05:32.480Z,101946.00
2018-09-14T01:08:00.964Z,101940.73
2018-09-14T01:10:29.424Z,101937.23
2018-09-14T01:12:58.024Z,101939.34
2018-09-14T01:15:26.533Z,101939.92
2018-09-14T01:17:54.989Z,101930.67
2018-09-14T01:20:23.500Z,101930.80
2018-09-14T01:22:51.953Z,101931.16
2018-09-14T01:25:20.404Z,101931.16
2018-09-14T01:27:49.983Z,101932.44
2018-09-14T01:30:18.509Z,101930.11
2018-09-14T01:32:46.990Z,101931.69
2018-09-14T01:35:20.819Z,101928.19
2018-09-14T01:37:49.333Z,101927.37
2018-09-14T01:40:17.866Z,101926.03
2018-09-14T01:42:46.740Z,101925.18
2018-09-14T01:45:15.212Z,101928.87
2018-09-14T01:47:43.771Z,101924.16
2018-09-14T01:50:12.341Z,101932.08
2018-09-14T01:52:40.783Z,101922.89
2018-09-14T01:55:09.264Z,101927.53
2018-09-14T01:57:37.714Z,101927.91
2018-09-14T02:00:06.799Z,101918.76
2018-09-14T02:02:35.264Z,101918.82
2018-09-14T02:05:03.988Z,101913.13
2018-09-14T02:07:32.483Z,101920.91
2018-09-14T02:10:00.935Z,101916.26
2018-09-14T02:12:29.409Z,101916.95
2018-09-14T02:14:58.028Z,101923.70
2018-09-14T02:17:26.537Z,101913.37
2018-09-14T02:19:55.127Z,101915.86
2018-09-14T02:22:23.624Z,101914.98
2018-09-14T02:24:57.621Z,101910.24
2018-09-14T02:27:26.123Z,101910.02
2018-09-14T02:29:54.646Z,101903.74
2018-09-14T02:32:23.142Z,101907.77
2018-09-14T02:34:51.665Z,101905.53
2018-09-14T02:37:20.129Z,101896.42
2018-09-14T02:39:48.687Z,101900.64
2018-09-14T02:42:17.223Z,101887.93
2018-09-14T02:44:45.688Z,101897.49
2018-09-14T02:47:14.128Z,101901.76
2018-09-14T02:49:42.600Z,101901.83
2018-09-14T02:52:11.065Z,101904.56
2018-09-14T02:54:39.584Z,101897.25
2018-09-14T02:57:08.078Z,101898.34
2018-09-14T02:59:36.575Z,101897.00
2018-09-14T03:02:07.389Z,101896.62
2018-09-14T03:04:36.008Z,101891.78
2018-09-14T03:07:04.824Z,101891.92
2018-09-14T03:09:33.605Z,101885.75
2018-09-14T03:12:02.141Z,101892.84
2018-09-14T03:14:30.736Z,101892.57
2018-09-14T03:17:02.394Z,101891.51
2018-09-14T03:19:30.892Z,101891.89
2018-09-14T03:21:59.420Z,101891.61
2018-09-14T03:24:27.938Z,101883.30
2018-09-14T03:26:56.523Z,101883.52
2018-09-14T03:29:25.048Z,101880.98
2018-09-14T03:31:53.568Z,101881.25
2018-09-14T03:34:22.061Z,101880.11
2018-09-14T03:36:50.651Z,101879.76
2018-09-14T03:39:19.212Z,101872.45
2018-09-14T03:41:47.725Z,101872.04
2018-09-14T03:44:16.250Z,101873.43
2018-09-14T03:46:44.728Z,101879.79
2018-09-14T03:49:13.253Z,101880.17
2018-09-14T03:51:41.746Z,101878.03
2018-09-14T03:54:10.232Z,101886.25
2018-09-14T03:56:38.697Z,101881.52
2018-09-14T03:59:07.185Z,101878.98
2018-09-14T04:01:35.696Z,101881.52
2018-09-14T04:04:04.237Z,101881.62
2018-09-14T04:06:32.874Z,101880.75
2018-09-14T04:09:01.359Z,101880.47
2018-09-14T04:11:29.874Z,101886.83
2018-09-14T04:13:58.573Z,101882.81
2018-09-14T04:16:27.099Z,101874.84
2018-09-14T04:19:01.217Z,101878.04
2018-09-14T04:21:34.693Z,101878.38
2018-09-14T04:24:03.364Z,101880.77
2018-09-14T04:26:31.820Z,101881.29
2018-09-14T04:29:03.679Z,101881.66
2018-09-14T04:31:32.188Z,101878.66
2018-09-14T04:34:00.709Z,101877.51
2018-09-14T04:36:29.189Z,101886.01
2018-09-14T04:38:57.764Z,101879.56
2018-09-14T04:41:26.306Z,101883.19
2018-09-14T04:43:56.794Z,101882.28
2018-09-14T04:46:25.553Z,101882.02
2018-09-14T04:48:54.076Z,101893.58
2018-09-14T04:51:22.708Z,101894.09
2018-09-14T04:53:52.242Z,101895.09
2018-09-14T04:56:22.038Z,101898.91
2018-09-14T04:58:51.636Z,101896.98
2018-09-14T05:01:20.172Z,101894.02
2018-09-14T05:03:48.710Z,101890.63
2018-09-14T05:06:17.598Z,101890.88
2018-09-14T05:08:46.073Z,101888.20
2018-09-14T05:11:14.560Z,101887.83
2018-09-14T05:13:47.009Z,101884.73
2018-09-14T05:16:17.553Z,101888.92
2018-09-14T05:18:46.181Z,101883.14
2018-09-14T05:21:14.858Z,101887.16
2018-09-14T05:23:43.373Z,101887.95
2018-09-14T05:26:11.880Z,101889.16
2018-09-14T05:28:40.425Z,101891.38
2018-09-14T05:31:08.950Z,101897.80
2018-09-14T05:33:37.552Z,101900.75
2018-09-14T05:36:08.151Z,101896.88
2018-09-14T05:38:40.111Z,101897.30
2018-09-14T05:41:12.652Z,101898.88
2018-09-14T05:43:41.267Z,101901.83
2018-09-14T05:46:11.904Z,101896.34
2018-09-14T05:48:40.824Z,101894.05
2018-09-14T05:51:09.412Z,101899.84
2018-09-14T05:53:37.915Z,101900.52
2018-09-14T05:56:06.470Z,101906.16
2018-09-14T05:58:35.031Z,101901.33
2018-09-14T06:01:03.534Z,101909.02
2018-09-14T06:03:32.053Z,101911.58
2018-09-14T06:06:00.609Z,101914.98
2018-09-14T06:08:29.189Z,101917.07
2018-09-14T06:10:57.772Z,101918.41
2018-09-14T06:13:26.319Z,101921.34
2018-09-14T06:15:54.881Z,101921.97
2018-09-14T06:18:23.479Z,101931.43
2018-09-14T06:20:52.005Z,101933.20
2018-09-14T06:23:22.924Z,101929.88
2018-09-14T06:25:51.818Z,101925.90
2018-09-14T06:28:20.354Z,101937.28
2018-09-14T06:30:48.949Z,101936.31
2018-09-14T06:33:17.560Z,101939.56
2018-09-14T06:35:47.456Z,101941.25
2018-09-14T06:38:16.025Z,101939.39
2018-09-14T06:40:46.604Z,101933.83
2018-09-14T06:43:16.181Z,101941.55
2018-09-14T06:45:46.789Z,101948.56
2018-09-14T06:48:15.436Z,101939.41
2018-09-14T06:50:49.991Z,101943.81
2018-09-14T06:53:18.581Z,101942.23
2018-09-14T06:56:24.244Z,101944.81
2018-09-14T06:58:52.962Z,101948.36
2018-09-14T07:01:21.471Z,101951.95
2018-09-14T07:03:49.988Z,101945.80
2018-09-14T07:06:18.523Z,101949.94
2018-09-14T07:08:47.123Z,101946.94
2018-09-14T07:11:15.877Z,101952.75
2018-09-14T07:13:44.383Z,101946.70
2018-09-14T07:16:12.902Z,101947.12
2018-09-14T07:18:41.465Z,101950.36
2018-09-14T07:21:10.111Z,101940.97
2018-09-14T07:23:38.715Z,101945.12
2018-09-14T07:26:07.273Z,101944.31
2018-09-14T07:28:35.842Z,101941.24
2018-09-14T07:31:04.520Z,101941.20
2018-09-14T07:33:33.047Z,101941.73
2018-09-14T07:36:01.590Z,101944.42
2018-09-14T07:38:30.143Z,101941.53
2018-09-14T07:40:58.868Z,101941.75
2018-09-14T07:43:28.449Z,101945.58
2018-09-14T07:45:57.285Z,101949.22
2018-09-14T07:48:26.933Z,101950.86
2018-09-14T07:50:55.614Z,101949.44
2018-09-14T07:53:24.304Z,101948.52
2018-09-14T07:55:53.132Z,101948.91
2018-09-14T07:58:21.710Z,101949.42
2018-09-14T08:00:50.336Z,101950.86
2018-09-14T08:03:18.912Z,101947.55
2018-09-14T08:05:47.445Z,101954.38
2018-09-14T08:08:17.393Z,101950.84
2018-09-14T08:10:45.924Z,101949.27
2018-09-14T08:13:14.595Z,101954.45
2018-09-14T08:15:44.233Z,101956.16
2018-09-14T08:18:12.826Z,101948.70
2018-09-14T08:20:42.425Z,101954.79
2018-09-14T08:23:11.032Z,101948.27
2018-09-14T08:25:39.576Z,101947.30
2018-09-14T08:28:09.113Z,101949.86
2018-09-14T08:30:37.784Z,101953.75
2018-09-14T08:33:06.411Z,101954.25
2018-09-14T08:35:34.953Z,101951.68
2018-09-14T08:38:03.618Z,101952.95
2018-09-14T08:40:33.268Z,101951.11
2018-09-14T08:43:01.836Z,101956.19
2018-09-14T08:45:30.460Z,101960.72
2018-09-14T08:47:59.146Z,101959.63
2018-09-14T08:50:27.699Z,101956.42
2018-09-14T08:52:56.388Z,101958.11
2018-09-14T08:55:24.965Z,101957.69
2018-09-14T08:57:54.539Z,101954.08
2018-09-14T09:00:25.610Z,101957.89
2018-09-14T09:02:54.977Z,101961.23
2018-09-14T09:05:24.423Z,101963.34
2018-09-14T09:07:52.927Z,101962.31
2018-09-14T09:10:21.462Z,101957.22
2018-09-14T09:12:50.149Z,101956.14
2018-09-14T09:15:18.832Z,101957.66
2018-09-14T09:17:47.415Z,101955.80
2018-09-14T09:20:15.855Z,101958.64
2018-09-14T09:22:44.381Z,101966.38
2018-09-14T09:25:13.077Z,101966.50
2018-09-14T09:27:41.591Z,101960.08
2018-09-14T09:30:10.082Z,101955.58
2018-09-14T09:32:38.639Z,101964.15
2018-09-14T09:35:07.224Z,101958.03
2018-09-14T09:37:36.303Z,101952.30
2018-09-14T09:40:04.884Z,101953.25
2018-09-14T09:42:33.706Z,101953.75
2018-09-14T09:45:02.235Z,101960.72
2018-09-14T09:47:30.792Z,101952.13
2018-09-14T09:49:59.323Z,101956.20
2018-09-14T09:52:27.887Z,101961.14
2018-09-14T09:54:56.809Z,101953.80
2018-09-14T09:57:25.367Z,101949.61
2018-09-14T09:59:53.856Z,101954.39
2018-09-14T10:02:27.823Z,101946.44
2018-09-14T10:05:01.545Z,101954.25
2018-09-14T10:07:30.603Z,101955.07
2018-09-14T10:09:59.195Z,101947.41
2018-09-14T10:12:29.847Z,101944.50
2018-09-14T10:14:58.617Z,101944.20
2018-09-14T10:17:27.604Z,101941.05
2018-09-14T10:19:56.635Z,101942.91
2018-09-14T10:22:25.132Z,101940.66
2018-09-14T10:24:53.667Z,101940.95
2018-09-14T10:27:22.349Z,101936.75
2018-09-14T10:29:51.781Z,101932.81
2018-09-14T10:32:23.756Z,101930.86
2018-09-14T10:34:52.665Z,101924.62
2018-09-14T10:37:21.196Z,101917.46
2018-09-14T10:39:52.283Z,101925.39
2018-09-14T10:42:20.824Z,101918.50
2018-09-14T10:44:49.403Z,101918.34
2018-09-14T10:47:18.209Z,101912.56
2018-09-14T10:49:46.807Z,101917.36
2018-09-14T10:52:15.324Z,101909.78
2018-09-14T10:54:43.951Z,101912.53
2018-09-14T10:57:12.616Z,101904.11
2018-09-14T10:59:41.140Z,101898.41
2018-09-14T11:02:09.706Z,101896.44
2018-09-14T11:04:38.185Z,101899.47
2018-09-14T11:07:13.162Z,101897.08
2018-09-14T11:09:46.382Z,101891.80
2018-09-14T11:12:20.554Z,101887.19
2018-09-14T11:14:49.263Z,101875.90
2018-09-14T11:17:17.780Z,101879.23
2018-09-14T11:19:46.375Z,101875.16
2018-09-14T11:22:14.953Z,101875.77
2018-09-14T11:24:43.745Z,101871.87
2018-09-14T11:27:12.796Z,101879.84
2018-09-14T11:29:41.303Z,101866.73
2018-09-14T11:32:09.872Z,101866.30
2018-09-14T11:34:38.458Z,101862.69
2018-09-14T11:37:07.253Z,101861.16
2018-09-14T11:39:35.753Z,101852.34
2018-09-14T11:42:04.300Z,101853.98
2018-09-14T11:44:38.056Z,101852.55
2018-09-14T11:47:06.869Z,101850.02
2018-09-14T11:49:35.399Z,101845.75
2018-09-14T11:52:04.098Z,101852.86
2018-09-14T11:54:32.850Z,101841.77
2018-09-14T11:57:01.573Z,101840.31
2018-09-14T11:59:30.134Z,101837.16
2018-09-14T12:02:02.036Z,101830.16
2018-09-14T12:04:30.771Z,101822.59
2018-09-14T12:06:59.628Z,101818.17
2018-09-14T12:09:28.228Z,101807.30
2018-09-14T12:11:56.797Z,101811.05
2018-09-14T12:14:25.667Z,101808.48
2018-09-14T12:16:54.172Z,101800.52
2018-09-14T12:19:26.851Z,101800.78
2018-09-14T12:21:56.615Z,101801.86
2018-09-14T12:24:25.324Z,101798.03
2018-09-14T12:26:54.809Z,101798.14
2018-09-14T12:29:23.284Z,101802.20
2018-09-14T12:31:51.760Z,101798.30
2018-09-14T12:34:20.378Z,101793.45
2018-09-14T12:36:48.947Z,101793.95
2018-09-14T12:39:17.791Z,101788.40
2018-09-14T12:41:46.329Z,101786.32
2018-09-14T12:44:15.084Z,101778.82
2018-09-14T12:46:44.138Z,101785.19
2018-09-14T12:49:13.108Z,101774.27
2018-09-14T12:51:50.754Z,101771.22
2018-09-14T12:54:19.364Z,101775.34
2018-09-14T12:56:48.187Z,101767.72
2018-09-14T12:59:16.843Z,101770.38
2018-09-14T13:01:45.414Z,101760.83
2018-09-14T13:04:14.160Z,101763.56
2018-09-14T13:06:42.683Z,101755.59
2018-09-14T13:09:12.306Z,101755.64
2018-09-14T13:11:41.514Z,101756.80
2018-09-14T13:14:10.137Z,101757.08
2018-09-14T13:16:38.913Z,101753.47
2018-09-14T13:19:07.473Z,101748.27
2018-09-14T13:21:36.000Z,101745.47
2018-09-14T13:24:04.651Z,101737.26
2018-09-14T13:26:33.121Z,101735.00
2018-09-14T13:29:01.884Z,101734.99
2018-09-14T13:31:30.527Z,101734.64
2018-09-14T13:33:59.249Z,101728.28
2018-09-14T13:36:27.791Z,101733.81
2018-09-14T13:38:56.449Z,101727.27
2018-09-14T13:41:24.968Z,101727.81
2018-09-14T13:43:53.540Z,101725.28
2018-09-14T13:46:22.061Z,101718.43
2018-09-14T13:48:50.985Z,101721.01
2018-09-14T13:51:19.585Z,101719.85
2018-09-14T13:53:48.120Z,101720.91
2018-09-14T13:56:16.676Z,101719.59
2018-09-14T13:58:45.308Z,101725.63
2018-09-14T14:01:13.926Z,101715.63
2018-09-14T14:03:42.890Z,101720.36
2018-09-14T14:06:11.479Z,101716.30
2018-09-14T14:08:40.057Z,101714.98
2018-09-14T14:11:08.804Z,101713.09
2018-09-14T14:13:37.749Z,101704.05
2018-09-14T14:16:06.388Z,101696.98
2018-09-14T14:18:39.148Z,101702.44
2018-09-14T14:21:07.896Z,101693.66
2018-09-14T14:23:36.374Z,101694.69
2018-09-14T14:26:06.088Z,101697.94
2018-09-14T14:28:34.750Z,101693.03
2018-09-14T14:31:04.485Z,101695.76
2018-09-14T14:33:33.045Z,101689.70
2018-09-14T14:36:01.787Z,101693.03
2018-09-14T14:38:31.653Z,101689.50
2018-09-14T14:41:02.620Z,101687.87
2018-09-14T14:43:31.262Z,101686.23
2018-09-14T14:46:00.328Z,101684.92
2018-09-14T14:48:28.963Z,101693.42
2018-09-14T14:50:58.882Z,101693.17
2018-09-14T14:53:28.101Z,101683.30
2018-09-14T14:55:57.640Z,101680.28
2018-09-14T14:58:26.631Z,101677.28
2018-09-14T15:00:55.200Z,101676.50
2018-09-14T15:03:23.918Z,101670.48
2018-09-14T15:05:52.679Z,101670.19
2018-09-14T15:08:21.175Z,101662.00
2018-09-14T15:10:49.881Z,101652.72
2018-09-14T15:13:18.412Z,101659.55
2018-09-14T15:15:46.961Z,101652.72
2018-09-14T15:18:15.463Z,101658.47
2018-09-14T15:20:44.001Z,101657.39
2018-09-14T15:23:12.501Z,101656.55
2018-09-14T15:25:41.184Z,101659.28
2018-09-14T15:28:09.802Z,101653.55
2018-09-14T15:30:38.815Z,101653.26
2018-09-14T15:33:07.832Z,101650.25
2018-09-14T15:35:36.797Z,101653.27
2018-09-14T15:38:05.552Z,101654.34
2018-09-14T15:40:34.155Z,101657.92
2018-09-14T15:43:02.767Z,101652.18
2018-09-14T15:45:31.355Z,101646.16
2018-09-14T15:48:04.292Z,101651.08
2018-09-14T15:50:33.858Z,101649.98
2018-09-14T15:53:02.891Z,101653.52
2018-09-14T15:55:32.061Z,101648.06
2018-09-14T15:58:00.737Z,101645.61
2018-09-14T16:00:29.528Z,101648.86
2018-09-14T16:02:58.289Z,101646.42
2018-09-14T16:05:27.046Z,101643.42
2018-09-14T16:07:56.056Z,101650.48
2018-09-14T16:10:25.338Z,101646.11
2018-09-14T16:12:53.899Z,101640.91
2018-09-14T16:15:22.805Z,101637.33
2018-09-14T16:17:51.339Z,101643.30
2018-09-14T16:20:19.861Z,101644.91
2018-09-14T16:22:48.369Z,101641.30
2018-09-14T16:25:16.955Z,101638.61
2018-09-14T16:27:45.478Z,101638.86
2018-09-14T16:30:14.052Z,101638.00
2018-09-14T16:32:42.581Z,101636.84
2018-09-14T16:35:11.734Z,101636.79
2018-09-14T16:37:40.256Z,101631.31
2018-09-14T16:40:08.817Z,101639.20
2018-09-14T16:42:37.394Z,101641.62
2018-09-14T16:45:06.971Z,101640.75
2018-09-14T16:47:35.776Z,101635.23
2018-09-14T16:50:04.445Z,101634.70
2018-09-14T16:52:33.192Z,101626.56
2018-09-14T16:55:02.131Z,101631.88
2018-09-14T16:57:31.000Z,101635.84
2018-09-14T16:59:59.727Z,101632.00
2018-09-14T17:02:28.389Z,101645.73
2018-09-14T17:04:56.939Z,101642.92
2018-09-14T17:07:25.756Z,101642.80
2018-09-14T17:09:54.321Z,101638.90
2018-09-14T17:12:23.132Z,101641.04
2018-09-14T17:14:51.726Z,101647.95
2018-09-14T17:17:20.296Z,101656.74
2018-09-14T17:19:48.880Z,101653.64
2018-09-14T17:22:17.393Z,101654.94
2018-09-14T17:24:45.944Z,101656.55
2018-09-14T17:27:14.528Z,101653.16
2018-09-14T17:29:43.462Z,101657.09
2018-09-14T17:32:12.067Z,101652.04
2018-09-14T17:34:40.583Z,101650.83
2018-09-14T17:37:09.085Z,101652.88
2018-09-14T17:39:37.669Z,101652.73
2018-09-14T17:42:06.188Z,101652.09
2018-09-14T17:44:34.801Z,101658.84
2018-09-14T17:47:03.405Z,101647.88
2018-09-14T17:49:32.037Z,101645.16
2018-09-14T17:52:00.604Z,101647.75
2018-09-14T17:54:29.236Z,101651.58
2018-09-14T17:56:57.784Z,101650.59
2018-09-14T17:59:26.450Z,101650.64
2018-09-14T18:01:54.927Z,101653.94
2018-09-14T18:04:23.430Z,101659.77
2018-09-14T18:06:51.953Z,101657.47
2018-09-14T18:09:20.581Z,101657.84
2018-09-14T18:11:49.101Z,101657.63
2018-09-14T18:14:17.855Z,101659.45
2018-09-14T18:16:46.345Z,101667.92
2018-09-14T18:19:14.884Z,101664.06
2018-09-14T18:21:43.426Z,101666.47
2018-09-14T18:24:11.929Z,101663.02
2018-09-14T18:26:40.485Z,101666.67
2018-09-14T18:29:09.011Z,101663.27
2018-09-14T18:31:37.495Z,101658.54
2018-09-14T18:34:06.084Z,101655.23
2018-09-14T18:36:34.604Z,101657.48
2018-09-14T18:39:03.454Z,101655.68
2018-09-14T18:41:32.206Z,101661.44
2018-09-14T18:44:00.732Z,101662.84
2018-09-14T18:46:29.314Z,101663.13
2018-09-14T18:48:57.839Z,101659.98
2018-09-14T18:51:26.320Z,101661.25
2018-09-14T18:53:54.813Z,101663.91
2018-09-14T18:56:23.473Z,101662.68
2018-09-14T18:58:52.150Z,101656.06
2018-09-14T19:01:20.681Z,101663.77
2018-09-14T19:03:49.322Z,101658.36
2018-09-14T19:06:17.869Z,101658.47
2018-09-14T19:08:46.336Z,101658.53
2018-09-14T19:11:14.883Z,101663.50
2018-09-14T19:13:43.396Z,101660.32
2018-09-14T19:16:11.844Z,101657.30
2018-09-14T19:18:40.320Z,101661.91
2018-09-14T19:21:08.919Z,101666.78
2018-09-14T19:23:37.559Z,101669.09
2018-09-14T19:26:06.093Z,101670.72
2018-09-14T19:28:34.553Z,101665.13
2018-09-14T19:31:03.358Z,101668.61
2018-09-14T19:33:32.004Z,101666.42
2018-09-14T19:36:00.644Z,101667.90
2018-09-14T19:38:29.612Z,101669.55
2018-09-14T19:40:58.117Z,101669.13
2018-09-14T19:43:27.716Z,101665.01
2018-09-14T19:45:56.490Z,101666.95
2018-09-14T19:48:24.970Z,101660.26
2018-09-14T19:50:53.472Z,101662.97
2018-09-14T19:53:22.075Z,101666.55
2018-09-14T19:55:50.555Z,101664.31
2018-09-14T19:58:19.082Z,101661.31
2018-09-14T20:00:48.005Z,101664.65
2018-09-14T20:03:16.583Z,101656.89
2018-09-14T20:05:45.248Z,101656.65
2018-09-14T20:08:13.729Z,101654.60
2018-09-14T20:10:42.266Z,101651.52
2018-09-14T20:13:10.725Z,101653.80
2018-09-14T20:15:39.244Z,101645.70
2018-09-14T20:18:07.796Z,101655.27
2018-09-14T20:20:36.284Z,101651.63
2018-09-14T20:23:04.746Z,101654.00
2018-09-14T20:25:33.252Z,101653.66
2018-09-14T20:28:01.810Z,101651.44
2018-09-14T20:30:30.567Z,101644.85
2018-09-14T20:32:59.084Z,101649.52
2018-09-14T20:35:27.656Z,101651.27
2018-09-14T20:37:56.161Z,101652.69
2018-09-14T20:40:24.688Z,101648.94
2018-09-14T20:42:53.184Z,101649.69
2018-09-14T20:45:21.620Z,101640.19
2018-09-14T20:47:50.148Z,101637.48
2018-09-14T20:50:18.756Z,101643.37
2018-09-14T20:52:47.316Z,101641.14
2018-09-14T20:55:15.919Z,101634.92
2018-09-14T20:57:44.432Z,101637.97
2018-09-14T21:00:17.240Z,101632.46
2018-09-14T21:02:46.168Z,101631.69
2018-09-14T21:05:14.811Z,101624.36
2018-09-14T21:07:43.400Z,101631.52
2018-09-14T21:10:11.928Z,101632.73
2018-09-14T21:12:40.403Z,101633.34
2018-09-14T21:15:08.988Z,101636.17
2018-09-14T21:17:37.568Z,101642.93
2018-09-14T21:20:06.108Z,101648.64
2018-09-14T21:22:34.597Z,101652.22
2018-09-14T21:25:03.209Z,101654.62
2018-09-14T21:27:31.788Z,101669.95
2018-09-14T21:30:00.336Z,101679.58
2018-09-14T21:32:28.858Z,101686.03
2018-09-14T21:34:57.398Z,101676.88
2018-09-14T21:37:26.084Z,101679.89
2018-09-14T21:39:54.698Z,101684.22
2018-09-14T21:42:23.301Z,101684.78
2018-09-14T21:44:51.810Z,101676.23
2018-09-14T21:47:20.724Z,101679.38
2018-09-14T21:49:49.224Z,101678.37
2018-09-14T21:52:17.724Z,101676.27
2018-09-14T21:54:46.256Z,101683.16
2018-09-14T21:57:14.848Z,101685.29
2018-09-14T21:59:43.356Z,101685.50
2018-09-14T22:02:11.864Z,101682.05
2018-09-14T22:04:40.389Z,101676.81
2018-09-14T22:07:09.468Z,101687.09
2018-09-14T22:09:38.036Z,101685.44
2018-09-14T22:12:06.669Z,101695.53
2018-09-14T22:14:35.197Z,101691.17
2018-09-14T22:17:03.700Z,101691.67
2018-09-14T22:19:32.453Z,101679.16
2018-09-14T22:22:00.997Z,101680.59
2018-09-14T22:24:29.501Z,101681.11
2018-09-14T22:26:58.075Z,101683.16
2018-09-14T22:29:26.646Z,101679.70
2018-09-14T22:31:55.316Z,101683.30
2018-09-14T22:34:28.427Z,101682.78
2018-09-14T22:36:57.012Z,101687.34
2018-09-14T22:39:25.625Z,101679.84
2018-09-14T22:41:54.239Z,101685.02
2018-09-14T22:44:22.793Z,101687.86
2018-09-14T22:46:51.397Z,101686.07
2018-09-14T22:49:19.899Z,101688.84
2018-09-14T22:51:52.165Z,101683.80
2018-09-14T22:54:20.674Z,101680.13
2018-09-14T22:56:49.248Z,101683.80
2018-09-14T22:59:17.776Z,101672.66
2018-09-14T23:01:49.458Z,101676.23
2018-09-14T23:04:19.188Z,101689.06
2018-09-14T23:06:47.756Z,101690.50
2018-09-14T23:09:16.434Z,101694.63
2018-09-14T23:11:45.009Z,101693.89
2018-09-14T23:14:21.261Z,101697.63
2018-09-14T23:16:49.790Z,101687.52
2018-09-14T23:19:18.690Z,101686.36
2018-09-14T23:21:47.193Z,101683.64
2018-09-14T23:24:16.804Z,101686.09
2018-09-14T23:26:45.421Z,101683.66
2018-09-14T23:29:13.928Z,101685.46
2018-09-14T23:31:42.600Z,101677.30
2018-09-14T23:34:18.886Z,101688.34
2018-09-14T23:36:47.444Z,101687.08
2018-09-14T23:39:16.168Z,101698.08
2018-09-14T23:41:44.742Z,101694.03
2018-09-14T23:44:13.305Z,101695.61
2018-09-14T23:46:41.865Z,101698.69
2018-09-14T23:49:10.449Z,101701.23
2018-09-14T23:51:39.068Z,101700.47
2018-09-14T23:54:18.825Z,101704.52
2018-09-14T23:56:47.361Z,101703.39
2018-09-14T23:59:15.936Z,101704.24
